Time;durP1;ratioP1;P1;durP2;ratioP2;P2;SDS_P1;SDS_P2;PMS_P1;PMS_P2;Temp;Humidity;BMP_temperature;BMP_pressure;BME280_temperature;BME280_humidity;BME280_pressure;Samples;Min_cycle;Max_cycle;Signal;HPM_P1;HPM_P2
2022/07/17 00:00:48;;;;;;;1.30;0.70;;;12.10;99.90;;;;;;5001989;28;20206;-87
2022/07/17 00:03:15;;;;;;;3.60;1.10;;;12.10;99.90;;;;;;5018317;28;20692;-87
2022/07/17 00:05:43;;;;;;;1.23;0.90;;;12.20;99.90;;;;;;5034831;28;20275;-86
2022/07/17 00:08:10;;;;;;;1.30;0.97;;;12.20;99.90;;;;;;5017407;28;20244;-87
2022/07/17 00:10:38;;;;;;;0.90;0.73;;;12.20;99.90;;;;;;5018394;28;20230;-87
2022/07/17 00:13:05;;;;;;;5.97;1.30;;;12.30;99.90;;;;;;5018698;28;20289;-87
2022/07/17 00:15:32;;;;;;;1.83;0.90;;;12.30;99.90;;;;;;5033366;28;20238;-87
2022/07/17 00:17:58;;;;;;;2.37;1.33;;;12.30;99.90;;;;;;5016480;28;20219;-87
2022/07/17 00:20:26;;;;;;;1.87;1.00;;;12.30;99.90;;;;;;5033168;28;20210;-87
2022/07/17 00:22:52;;;;;;;1.87;1.30;;;12.30;99.90;;;;;;5025929;28;20191;-87
2022/07/17 00:25:18;;;;;;;1.20;0.93;;;12.30;99.90;;;;;;5010834;28;20183;-87
2022/07/17 00:27:44;;;;;;;3.47;1.30;;;12.30;99.90;;;;;;5002008;28;20207;-87
2022/07/17 00:30:10;;;;;;;1.23;1.13;;;12.20;99.90;;;;;;5032213;28;20268;-86
2022/07/17 00:32:36;;;;;;;1.70;1.40;;;12.20;99.90;;;;;;5016927;28;20210;-87
2022/07/17 00:35:02;;;;;;;1.07;0.90;;;12.00;99.90;;;;;;5017442;28;20754;-87
2022/07/17 00:37:28;;;;;;;4.40;1.00;;;11.90;99.90;;;;;;5025220;28;20183;-87
2022/07/17 00:39:54;;;;;;;1.90;1.70;;;11.90;99.90;;;;;;5016671;28;20214;-88
2022/07/17 00:42:20;;;;;;;1.57;1.10;;;11.90;99.90;;;;;;5016156;28;20242;-88
2022/07/17 00:44:46;;;;;;;2.00;1.80;;;11.90;99.90;;;;;;5017727;28;20214;-87
2022/07/17 00:47:16;;;;;;;1.20;0.97;;;11.90;99.90;;;;;;5017731;28;20549;-87
2022/07/17 00:49:42;;;;;;;3.37;1.10;;;12.00;99.90;;;;;;5034569;28;20207;-87
2022/07/17 00:52:12;;;;;;;1.33;0.90;;;12.00;99.90;;;;;;5018067;28;20233;-87
2022/07/17 00:54:39;;;;;;;13.13;1.87;;;12.10;99.90;;;;;;5034336;28;21231;-87
2022/07/17 00:57:12;;;;;;;1.43;1.23;;;12.10;99.90;;;;;;5032119;28;20257;-87
2022/07/17 00:59:39;;;;;;;1.07;1.00;;;12.10;99.90;;;;;;5021796;28;20215;-87
2022/07/17 01:02:11;;;;;;;2.20;1.27;;;12.20;99.90;;;;;;4983434;28;20219;-87
2022/07/17 01:04:37;;;;;;;1.10;0.83;;;12.10;99.90;;;;;;5005903;28;20187;-88
2022/07/17 01:07:07;;;;;;;3.80;1.10;;;12.10;99.90;;;;;;5006785;28;20781;-87
2022/07/17 01:09:34;;;;;;;1.13;1.03;;;12.10;99.90;;;;;;5006474;28;20219;-87
2022/07/17 01:12:00;;;;;;;2.20;1.17;;;12.10;99.90;;;;;;5006462;28;20277;-88
2022/07/17 01:14:27;;;;;;;1.17;0.90;;;12.00;99.90;;;;;;4998227;28;20211;-88
2022/07/17 01:16:54;;;;;;;2.00;1.13;;;12.00;99.90;;;;;;4981859;28;20579;-88
2022/07/17 01:19:21;;;;;;;2.20;1.20;;;11.90;99.90;;;;;;4998612;28;20183;-87
2022/07/17 01:21:50;;;;;;;1.93;1.07;;;11.90;99.90;;;;;;4997271;28;20199;-88
2022/07/17 01:24:17;;;;;;;1.00;0.90;;;11.80;99.90;;;;;;4981771;28;20358;-88
2022/07/17 01:26:44;;;;;;;1.60;0.93;;;11.80;99.90;;;;;;5012317;28;20744;-88
2022/07/17 01:29:12;;;;;;;0.70;0.70;;;11.70;99.90;;;;;;4980402;28;21135;-87
2022/07/17 01:31:39;;;;;;;7.37;1.40;;;11.70;99.90;;;;;;4983717;28;20187;-88
2022/07/17 01:34:09;;;;;;;1.60;1.50;;;11.60;99.90;;;;;;4981978;28;20281;-87
2022/07/17 01:36:36;;;;;;;6.53;1.47;;;11.60;99.90;;;;;;4995938;28;20602;-87
2022/07/17 01:39:03;;;;;;;1.67;0.97;;;11.60;99.90;;;;;;4980245;28;20238;-87
2022/07/17 01:41:30;;;;;;;1.47;1.30;;;11.60;99.90;;;;;;4980228;28;20223;-87
2022/07/17 01:43:56;;;;;;;1.20;1.10;;;11.50;99.90;;;;;;4998020;28;20249;-87
2022/07/17 01:46:22;;;;;;;1.10;1.00;;;11.40;99.90;;;;;;5005331;28;20183;-87
2022/07/17 01:48:47;;;;;;;2.00;1.27;;;11.50;99.90;;;;;;4989790;28;20243;-87
2022/07/17 01:51:13;;;;;;;2.37;1.40;;;11.60;99.90;;;;;;4996494;28;20211;-88
2022/07/17 01:53:39;;;;;;;2.67;1.30;;;11.70;99.90;;;;;;4975721;28;20826;-87
2022/07/17 01:56:05;;;;;;;2.00;1.60;;;11.80;99.90;;;;;;4998389;28;20222;-88
2022/07/17 01:58:31;;;;;;;2.13;1.13;;;11.90;99.90;;;;;;4979564;28;20210;-88
2022/07/17 02:00:57;;;;;;;2.33;1.53;;;11.90;99.90;;;;;;4963184;28;20235;-88
2022/07/17 02:03:22;;;;;;;2.10;1.40;;;12.00;99.90;;;;;;4962816;28;20290;-88
2022/07/17 02:05:48;;;;;;;3.60;1.53;;;12.00;99.90;;;;;;4997884;28;20277;-88
2022/07/17 02:08:14;;;;;;;2.67;1.90;;;12.00;99.90;;;;;;4995451;28;20218;-88
2022/07/17 02:10:40;;;;;;;4.10;2.03;;;12.10;99.90;;;;;;4965084;28;20232;-88
2022/07/17 02:13:05;;;;;;;6.07;3.03;;;12.10;99.90;;;;;;4979092;28;20739;-88
2022/07/17 02:15:31;;;;;;;3.87;1.83;;;12.10;99.90;;;;;;5012341;28;20227;-88
2022/07/17 02:17:57;;;;;;;2.80;1.33;;;12.10;99.90;;;;;;4998102;28;20217;-88
2022/07/17 02:20:23;;;;;;;3.47;1.50;;;12.10;99.90;;;;;;5001465;28;20218;-87
2022/07/17 02:22:49;;;;;;;1.73;1.60;;;12.10;99.90;;;;;;5007255;28;20329;-88
2022/07/17 02:25:15;;;;;;;2.90;1.60;;;12.00;99.90;;;;;;4998955;28;20239;-88
2022/07/17 02:27:42;;;;;;;4.00;1.97;;;12.00;99.90;;;;;;4997224;28;20692;-88
2022/07/17 02:30:13;;;;;;;2.50;1.67;;;12.00;99.90;;;;;;4996902;28;20228;-89
2022/07/17 02:32:39;;;;;;;3.60;1.70;;;12.10;99.90;;;;;;4999853;28;20253;-88
2022/07/17 02:35:06;;;;;;;2.83;1.60;;;12.10;99.90;;;;;;4999642;28;20239;-87
2022/07/17 02:37:32;;;;;;;4.73;1.70;;;12.20;99.90;;;;;;5002760;28;20195;-89
2022/07/17 02:39:58;;;;;;;3.47;1.67;;;12.20;99.90;;;;;;5016532;28;20211;-88
2022/07/17 02:42:26;;;;;;;5.73;1.53;;;12.10;99.90;;;;;;5000180;28;20242;-88
2022/07/17 02:44:52;;;;;;;4.70;1.60;;;12.20;99.90;;;;;;5000186;28;20219;-88
2022/07/17 02:47:24;;;;;;;17.17;1.70;;;12.20;99.90;;;;;;5008751;28;20242;-88
2022/07/17 02:49:51;;;;;;;7.20;1.10;;;12.20;99.90;;;;;;4985490;28;20671;-88
2022/07/17 02:52:17;;;;;;;2.70;1.57;;;12.10;99.90;;;;;;4993192;28;20691;-88
2022/07/17 02:54:43;;;;;;;2.57;1.67;;;12.20;99.90;;;;;;4983889;28;20239;-88
2022/07/17 02:57:09;;;;;;;2.50;1.30;;;12.20;99.90;;;;;;4984895;28;20203;-89
2022/07/17 02:59:36;;;;;;;1.93;1.47;;;12.10;99.90;;;;;;4984104;28;20215;-88
2022/07/17 03:02:02;;;;;;;3.97;1.93;;;12.10;99.90;;;;;;4999947;28;20188;-88
2022/07/17 03:04:28;;;;;;;3.20;1.00;;;12.10;99.90;;;;;;4985327;28;20188;-88
2022/07/17 03:06:53;;;;;;;3.20;1.27;;;12.10;99.90;;;;;;5000513;28;20231;-86
2022/07/17 03:09:19;;;;;;;1.57;1.03;;;12.10;99.90;;;;;;4983749;28;20782;-87
2022/07/17 03:11:45;;;;;;;5.13;1.37;;;12.10;99.90;;;;;;4984382;28;20228;-88
2022/07/17 03:14:11;;;;;;;1.40;1.30;;;12.20;99.90;;;;;;5000523;28;20574;-87
2022/07/17 03:16:36;;;;;;;2.40;1.40;;;12.10;99.90;;;;;;4968443;28;20187;-88
2022/07/17 03:19:02;;;;;;;2.83;1.50;;;12.20;99.90;;;;;;4982671;28;20694;-87
2022/07/17 03:21:28;;;;;;;2.57;1.43;;;12.30;99.90;;;;;;4967143;28;20208;-88
2022/07/17 03:23:54;;;;;;;2.63;1.60;;;12.30;99.90;;;;;;4982111;28;20204;-88
2022/07/17 03:26:19;;;;;;;12.73;2.67;;;12.40;99.90;;;;;;4982027;28;20708;-88
2022/07/17 03:28:45;;;;;;;2.03;1.40;;;12.40;99.90;;;;;;4985037;28;20274;-87
2022/07/17 03:31:11;;;;;;;2.73;1.90;;;12.40;99.90;;;;;;4983179;28;20210;-87
2022/07/17 03:33:37;;;;;;;6.50;1.97;;;12.50;99.90;;;;;;4983163;28;20210;-88
2022/07/17 03:36:02;;;;;;;3.93;1.77;;;12.50;99.90;;;;;;4968525;28;20215;-88
2022/07/17 03:38:28;;;;;;;2.97;1.13;;;12.50;99.90;;;;;;4984647;28;20712;-87
2022/07/17 03:40:54;;;;;;;5.50;1.60;;;12.50;99.90;;;;;;4981107;28;20191;-88
2022/07/17 03:43:20;;;;;;;3.20;1.53;;;12.50;99.90;;;;;;4982605;28;20212;-87
2022/07/17 03:45:45;;;;;;;3.10;1.77;;;12.60;99.90;;;;;;4981449;28;20203;-88
2022/07/17 03:48:11;;;;;;;1.30;1.03;;;12.60;99.90;;;;;;4982741;28;20220;-88
2022/07/17 03:50:37;;;;;;;3.37;2.17;;;12.60;99.90;;;;;;4966961;28;20211;-88
2022/07/17 03:53:02;;;;;;;3.53;1.70;;;12.60;99.90;;;;;;4965182;28;20188;-87
2022/07/17 03:55:28;;;;;;;1.70;1.37;;;12.60;99.90;;;;;;4981767;28;20188;-88
2022/07/17 03:57:54;;;;;;;2.03;1.40;;;12.60;99.90;;;;;;4982401;28;20220;-88
2022/07/17 04:00:20;;;;;;;2.60;1.37;;;12.60;99.90;;;;;;4980784;28;20227;-88
2022/07/17 04:02:46;;;;;;;5.47;1.73;;;12.70;99.90;;;;;;5000735;28;20203;-88
2022/07/17 04:05:12;;;;;;;1.50;1.40;;;12.70;99.90;;;;;;4983787;28;20215;-88
2022/07/17 04:07:39;;;;;;;1.87;1.60;;;12.70;99.90;;;;;;5014169;28;20238;-88
2022/07/17 04:10:06;;;;;;;2.10;1.83;;;12.80;99.90;;;;;;4997818;28;20732;-88
2022/07/17 04:12:32;;;;;;;2.77;1.73;;;12.80;99.90;;;;;;4998070;28;20692;-88
2022/07/17 04:14:58;;;;;;;2.00;1.40;;;12.80;99.90;;;;;;5000526;28;20211;-88
2022/07/17 04:17:24;;;;;;;3.47;0.83;;;12.90;99.90;;;;;;4974391;28;21163;-88
2022/07/17 04:19:50;;;;;;;1.93;1.73;;;13.00;99.90;;;;;;5015212;28;20188;-88
2022/07/17 04:22:16;;;;;;;6.10;1.97;;;13.00;99.90;;;;;;4999152;28;20203;-88
2022/07/17 04:24:42;;;;;;;5.13;1.40;;;13.10;99.90;;;;;;4983545;28;20219;-88
2022/07/17 04:27:08;;;;;;;1.77;1.33;;;13.10;99.90;;;;;;4981813;28;20216;-88
2022/07/17 04:29:34;;;;;;;2.53;1.30;;;13.20;99.90;;;;;;4998435;28;20222;-89
2022/07/17 04:32:00;;;;;;;4.07;1.47;;;13.30;99.90;;;;;;5006122;28;20176;-89
2022/07/17 04:34:26;;;;;;;7.00;1.70;;;13.30;99.90;;;;;;4981836;28;20271;-88
2022/07/17 04:36:52;;;;;;;2.30;1.67;;;13.40;99.90;;;;;;4998074;28;20303;-89
2022/07/17 04:39:18;;;;;;;2.30;1.50;;;13.40;99.90;;;;;;4980382;28;20222;-89
2022/07/17 04:41:44;;;;;;;1.43;0.93;;;13.50;99.90;;;;;;4979704;28;20211;-89
2022/07/17 04:44:09;;;;;;;2.17;1.80;;;13.50;99.90;;;;;;4999511;28;20207;-89
2022/07/17 04:46:35;;;;;;;2.83;1.33;;;13.60;99.90;;;;;;4999239;28;20273;-87
2022/07/17 04:49:01;;;;;;;1.30;1.20;;;13.60;99.90;;;;;;4989555;28;20224;-87
2022/07/17 04:51:27;;;;;;;1.13;1.03;;;13.60;99.90;;;;;;5013200;28;20313;-88
2022/07/17 04:53:52;;;;;;;7.90;1.20;;;13.60;99.90;;;;;;4999227;28;20211;-87
2022/07/17 04:56:18;;;;;;;1.43;1.13;;;13.70;99.90;;;;;;5017614;28;20237;-87
2022/07/17 04:58:44;;;;;;;2.00;1.90;;;13.80;99.90;;;;;;5017753;28;20194;-88
2022/07/17 05:01:10;;;;;;;3.00;1.10;;;13.80;99.90;;;;;;4991102;28;20219;-88
2022/07/17 05:03:37;;;;;;;4.23;1.57;;;13.90;99.90;;;;;;4997688;28;20231;-88
2022/07/17 05:06:04;;;;;;;1.20;0.93;;;13.90;99.90;;;;;;4999041;28;20227;-87
2022/07/17 05:08:30;;;;;;;1.40;1.10;;;14.00;99.90;;;;;;5005018;28;20215;-88
2022/07/17 05:10:56;;;;;;;5.13;1.17;;;14.10;99.90;;;;;;4981084;28;20243;-88
2022/07/17 05:13:21;;;;;;;1.93;0.90;;;14.20;99.90;;;;;;4966676;28;20256;-88
2022/07/17 05:15:49;;;;;;;6.40;1.33;;;14.20;99.90;;;;;;4981624;28;20295;-88
2022/07/17 05:18:15;;;;;;;1.80;1.50;;;14.30;99.90;;;;;;4989102;28;20354;-88
2022/07/17 05:20:40;;;;;;;3.33;1.20;;;14.40;99.90;;;;;;4995862;28;20294;-89
2022/07/17 05:23:06;;;;;;;0.97;0.90;;;14.40;99.90;;;;;;4981058;28;20220;-88
2022/07/17 05:25:32;;;;;;;2.50;1.10;;;14.60;99.90;;;;;;4981155;28;20195;-87
2022/07/17 05:27:58;;;;;;;1.03;0.83;;;14.70;99.90;;;;;;4981340;28;20261;-88
2022/07/17 05:30:24;;;;;;;1.10;1.00;;;14.70;99.90;;;;;;4965639;28;20224;-87
2022/07/17 05:32:50;;;;;;;1.93;1.10;;;14.90;99.90;;;;;;4997295;28;20215;-88
2022/07/17 05:35:16;;;;;;;5.37;1.23;;;15.00;99.90;;;;;;4982460;28;20576;-87
2022/07/17 05:37:42;;;;;;;1.27;1.17;;;15.20;99.90;;;;;;4980311;28;20195;-88
2022/07/17 05:40:08;;;;;;;3.07;1.00;;;15.50;99.90;;;;;;4996271;28;20215;-88
2022/07/17 05:42:34;;;;;;;2.30;0.90;;;15.70;99.90;;;;;;4996602;28;20219;-88
2022/07/17 05:45:00;;;;;;;5.00;1.40;;;15.70;99.90;;;;;;4997830;28;20668;-88
2022/07/17 05:47:25;;;;;;;2.50;1.23;;;16.10;99.90;;;;;;4979093;28;20262;-88
2022/07/17 05:49:51;;;;;;;2.43;1.00;;;16.70;99.90;;;;;;4980970;28;20234;-88
2022/07/17 05:52:17;;;;;;;1.37;0.87;;;17.40;99.90;;;;;;4997395;28;20743;-88
2022/07/17 05:54:43;;;;;;;8.30;1.30;;;18.10;99.90;;;;;;4995980;28;20219;-87
2022/07/17 05:57:09;;;;;;;1.40;1.27;;;18.20;99.90;;;;;;4981040;28;20219;-88
2022/07/17 05:59:34;;;;;;;2.80;1.00;;;18.70;99.90;;;;;;4979077;28;20215;-89
2022/07/17 06:02:00;;;;;;;5.10;1.40;;;18.90;99.90;;;;;;4978748;28;20652;-87
2022/07/17 06:04:26;;;;;;;1.67;1.23;;;18.80;99.90;;;;;;4980692;28;20207;-88
2022/07/17 06:06:52;;;;;;;3.70;1.60;;;18.40;99.90;;;;;;4984625;28;20220;-88
2022/07/17 06:09:18;;;;;;;2.67;0.93;;;18.40;99.90;;;;;;4984681;28;20573;-88
2022/07/17 06:11:43;;;;;;;2.53;0.90;;;18.20;99.90;;;;;;4967366;28;20234;-88
2022/07/17 06:14:09;;;;;;;4.93;1.30;;;18.20;99.90;;;;;;4983959;28;20277;-87
2022/07/17 06:16:35;;;;;;;5.27;1.87;;;18.10;99.90;;;;;;4985009;28;20251;-87
2022/07/17 06:19:01;;;;;;;3.80;1.50;;;17.90;99.90;;;;;;4983978;28;20218;-88
2022/07/17 06:21:26;;;;;;;1.73;1.63;;;17.60;99.90;;;;;;4982899;28;20295;-88
2022/07/17 06:23:52;;;;;;;2.07;1.00;;;17.40;99.90;;;;;;5034004;28;20227;-88
2022/07/17 06:26:18;;;;;;;2.80;1.43;;;17.20;99.90;;;;;;4968167;28;20220;-88
2022/07/17 06:28:44;;;;;;;2.53;1.13;;;17.10;99.90;;;;;;4966791;28;20187;-88
2022/07/17 06:31:09;;;;;;;2.77;1.17;;;16.90;99.90;;;;;;5015957;28;20239;-88
2022/07/17 06:33:36;;;;;;;2.83;1.20;;;16.80;99.90;;;;;;4985929;28;20223;-87
2022/07/17 06:36:02;;;;;;;2.00;0.83;;;16.90;99.90;;;;;;4999825;28;20703;-88
2022/07/17 06:38:28;;;;;;;1.10;1.00;;;17.00;99.90;;;;;;4982818;28;20214;-88
2022/07/17 06:40:54;;;;;;;2.10;1.57;;;17.00;99.90;;;;;;5001258;28;20286;-87
2022/07/17 06:43:20;;;;;;;0.93;0.90;;;16.90;99.90;;;;;;4992630;28;20196;-88
2022/07/17 06:45:45;;;;;;;1.73;0.93;;;17.00;99.90;;;;;;4981479;28;20703;-88
2022/07/17 06:48:11;;;;;;;4.37;0.97;;;17.00;99.90;;;;;;5014065;28;20561;-88
2022/07/17 06:50:37;;;;;;;0.60;0.60;;;17.00;99.90;;;;;;5019305;28;20229;-88
2022/07/17 06:53:03;;;;;;;6.13;1.03;;;17.10;99.90;;;;;;5018343;28;20210;-87
2022/07/17 06:55:29;;;;;;;1.70;0.93;;;17.30;99.90;;;;;;5004862;28;20191;-87
2022/07/17 06:57:54;;;;;;;2.43;0.70;;;17.40;99.90;;;;;;5002950;28;20801;-87
2022/07/17 07:00:20;;;;;;;2.87;1.03;;;17.80;99.90;;;;;;5018774;28;20231;-87
2022/07/17 07:02:46;;;;;;;0.83;0.80;;;18.60;99.90;;;;;;5034536;28;20211;-88
2022/07/17 07:05:12;;;;;;;1.07;1.00;;;19.30;99.90;;;;;;5019520;28;20219;-87
2022/07/17 07:07:37;;;;;;;1.50;0.70;;;19.80;99.90;;;;;;5006400;28;20277;-92
2022/07/17 07:10:04;;;;;;;1.13;0.83;;;19.80;99.90;;;;;;5019736;28;20227;-88
2022/07/17 07:12:30;;;;;;;3.90;1.03;;;19.80;99.90;;;;;;5002252;28;20222;-89
2022/07/17 07:14:56;;;;;;;1.17;0.80;;;20.50;99.90;;;;;;5017826;28;20264;-87
2022/07/17 07:17:22;;;;;;;1.90;0.80;;;21.60;99.90;;;;;;5018068;28;20211;-88
2022/07/17 07:19:47;;;;;;;4.63;1.23;;;23.00;99.90;;;;;;5005046;28;20197;-88
2022/07/17 07:22:13;;;;;;;1.57;0.90;;;25.30;99.90;;;;;;5019551;28;20191;-89
2022/07/17 07:24:39;;;;;;;0.73;0.70;;;26.90;99.90;;;;;;5005959;28;20221;-88
2022/07/17 07:27:05;;;;;;;5.97;0.97;;;28.20;99.90;;;;;;5019689;28;20241;-88
2022/07/17 07:29:30;;;;;;;2.33;0.85;;;29.00;99.90;;;;;;5035053;28;20215;-88
2022/07/17 07:31:56;;;;;;;1.45;1.00;;;28.80;99.90;;;;;;5017920;28;20179;-88
2022/07/17 07:34:22;;;;;;;1.45;0.88;;;29.30;99.90;;;;;;5003566;28;20182;-88
2022/07/17 07:36:47;;;;;;;2.28;0.93;;;30.40;99.90;;;;;;5017418;28;20684;-88
2022/07/17 07:39:14;;;;;;;3.35;0.80;;;31.10;99.10;;;;;;5017576;28;20674;-88
2022/07/17 07:41:41;;;;;;;2.72;1.08;;;31.50;98.90;;;;;;5005026;28;20745;-90
2022/07/17 07:44:07;;;;;;;3.70;1.00;;;31.60;97.40;;;;;;5011474;28;20218;-89
2022/07/17 07:46:34;;;;;;;2.67;0.80;;;31.20;96.60;;;;;;5001695;28;20191;-89
2022/07/17 07:49:00;;;;;;;1.17;0.75;;;30.20;98.40;;;;;;5020158;28;20215;-89
2022/07/17 07:51:26;;;;;;;2.80;0.73;;;29.60;98.90;;;;;;5020927;28;20696;-89
2022/07/17 07:53:52;;;;;;;1.35;0.63;;;29.20;99.20;;;;;;5022074;28;20219;-88
2022/07/17 07:56:17;;;;;;;3.42;0.73;;;29.50;99.60;;;;;;5018868;28;20211;-90
2022/07/17 07:58:43;;;;;;;5.85;0.82;;;30.70;99.50;;;;;;5018929;28;20183;-89
2022/07/17 08:01:09;;;;;;;2.05;0.70;;;31.10;97.00;;;;;;5019450;28;20211;-90
2022/07/17 08:03:35;;;;;;;3.28;0.90;;;31.20;98.30;;;;;;5020423;28;20287;-91
2022/07/17 08:06:01;;;;;;;3.55;0.70;;;31.50;97.10;;;;;;5019249;28;20221;-89
2022/07/17 08:08:26;;;;;;;1.83;0.52;;;32.30;95.50;;;;;;5001101;28;20222;-90
2022/07/17 08:10:52;;;;;;;1.75;0.90;;;32.10;96.60;;;;;;5018501;28;20718;-90
2022/07/17 08:13:18;;;;;;;1.33;0.77;;;31.90;96.50;;;;;;5020205;28;20187;-89
2022/07/17 08:15:44;;;;;;;2.08;0.80;;;32.80;94.80;;;;;;5020960;28;20716;-88
2022/07/17 08:18:09;;;;;;;5.10;1.38;;;32.90;93.30;;;;;;5017786;28;20221;-91
2022/07/17 08:20:35;;;;;;;2.70;1.00;;;31.70;97.30;;;;;;5001541;28;20214;-87
2022/07/17 08:23:01;;;;;;;2.20;1.00;;;32.00;95.20;;;;;;5001531;28;20198;-87
2022/07/17 08:25:27;;;;;;;1.55;0.80;;;32.70;94.40;;;;;;4999710;28;20190;-87
2022/07/17 08:27:53;;;;;;;4.30;0.90;;;32.90;94.10;;;;;;4984585;28;20224;-88
2022/07/17 08:30:18;;;;;;;1.58;0.80;;;32.30;93.10;;;;;;4999276;28;20218;-87
2022/07/17 08:32:44;;;;;;;1.58;0.95;;;31.80;93.90;;;;;;4985438;28;20217;-87
2022/07/17 08:35:11;;;;;;;5.47;1.10;;;30.60;97.00;;;;;;5001067;28;20219;-88
2022/07/17 08:38:03;;;;;;;2.47;0.82;;;31.00;96.20;;;;;;5017762;28;20241;-87
2022/07/17 08:40:32;;;;;;;2.35;0.90;;;32.00;95.90;;;;;;5023195;28;20261;-87
2022/07/17 08:42:59;;;;;;;2.40;0.70;;;31.40;94.70;;;;;;5016848;28;20220;-88
2022/07/17 08:45:25;;;;;;;1.85;0.70;;;32.10;93.20;;;;;;5000433;28;20211;-88
2022/07/17 08:47:53;;;;;;;1.35;1.10;;;31.50;93.10;;;;;;5001605;28;20218;-87
2022/07/17 08:50:33;;;;;;;1.55;0.85;;;32.10;92.40;;;;;;5034624;28;20227;-88
2022/07/17 08:53:00;;;;;;;3.35;1.00;;;32.50;93.40;;;;;;5035322;28;20198;-88
2022/07/17 08:55:26;;;;;;;2.85;1.10;;;33.00;92.90;;;;;;5016212;28;20187;-88
2022/07/17 08:57:52;;;;;;;3.03;1.08;;;31.90;95.50;;;;;;5017117;28;20714;-88
2022/07/17 09:00:21;;;;;;;1.67;1.00;;;32.30;93.00;;;;;;5000179;28;20288;-88
2022/07/17 09:03:06;;;;;;;1.65;0.80;;;32.10;93.00;;;;;;5017683;28;20752;-88
2022/07/17 09:05:37;;;;;;;1.30;0.80;;;32.20;93.60;;;;;;5025541;28;20229;-88
2022/07/17 09:08:05;;;;;;;2.88;0.95;;;32.30;93.40;;;;;;5033782;28;20186;-88
2022/07/17 09:10:34;;;;;;;2.17;1.02;;;32.50;93.70;;;;;;4999990;28;20703;-88
2022/07/17 09:13:01;;;;;;;2.78;0.80;;;32.90;92.00;;;;;;5024503;28;20222;-88
2022/07/17 09:15:27;;;;;;;1.42;1.00;;;32.40;92.10;;;;;;4984872;28;20231;-88
2022/07/17 09:17:55;;;;;;;2.28;1.00;;;31.80;90.10;;;;;;5016075;28;20214;-87
2022/07/17 09:20:22;;;;;;;2.35;0.90;;;31.90;92.20;;;;;;5001088;28;20199;-88
2022/07/17 09:23:03;;;;;;;1.85;0.88;;;31.90;91.30;;;;;;5000750;28;20190;-88
2022/07/17 09:25:37;;;;;;;2.67;0.98;;;31.70;92.40;;;;;;5017553;28;20190;-89
2022/07/17 09:28:05;;;;;;;1.15;0.82;;;31.00;92.80;;;;;;5016623;28;20222;-88
2022/07/17 09:30:32;;;;;;;1.33;0.90;;;31.90;94.00;;;;;;5017202;28;20568;-88
2022/07/17 09:32:58;;;;;;;1.15;0.60;;;31.10;92.90;;;;;;5017000;28;20715;-87
2022/07/17 09:35:24;;;;;;;1.55;1.00;;;30.80;95.70;;;;;;4999737;28;20237;-88
2022/07/17 09:37:54;;;;;;;2.53;1.00;;;32.00;93.60;;;;;;4999763;28;20642;-88
2022/07/17 09:43:07;;;;;;;2.45;0.98;;;32.70;91.10;;;;;;5018037;28;20219;-88
2022/07/17 09:45:33;;;;;;;0.70;0.70;;;33.30;92.00;;;;;;5025124;28;20219;-88
2022/07/17 09:48:00;;;;;;;2.47;1.10;;;32.40;92.10;;;;;;5000072;28;20214;-88
2022/07/17 09:50:28;;;;;;;4.00;1.05;;;32.00;90.80;;;;;;5000193;28;20247;-89
2022/07/17 09:52:56;;;;;;;1.20;0.90;;;30.60;92.50;;;;;;5008003;28;21353;-87
2022/07/17 09:55:29;;;;;;;2.47;0.90;;;31.90;93.40;;;;;;5000045;28;20403;-88
2022/07/17 09:57:58;;;;;;;1.85;0.70;;;32.50;92.30;;;;;;5032234;28;20215;-88
2022/07/17 10:00:24;;;;;;;1.95;0.93;;;32.60;92.10;;;;;;5016772;28;20334;-88
2022/07/17 10:02:51;;;;;;;2.03;1.00;;;32.70;91.30;;;;;;5015175;28;20218;-88
2022/07/17 10:05:17;;;;;;;2.95;0.73;;;33.20;92.70;;;;;;5016914;28;20206;-88
2022/07/17 10:07:47;;;;;;;1.98;0.90;;;31.10;92.90;;;;;;5000964;28;20191;-89
2022/07/17 10:10:15;;;;;;;2.08;0.80;;;30.90;94.70;;;;;;4981479;28;20311;-88
2022/07/17 10:12:46;;;;;;;1.25;0.90;;;32.10;93.80;;;;;;5028481;28;20219;-87
2022/07/17 10:15:12;;;;;;;1.10;0.90;;;33.00;91.10;;;;;;5017188;28;20689;-88
2022/07/17 10:17:38;;;;;;;1.15;0.90;;;33.20;90.90;;;;;;5000140;28;20255;-87
2022/07/17 10:20:05;;;;;;;0.68;0.68;;;33.20;91.60;;;;;;5034761;28;22565;-87
2022/07/17 10:22:42;;;;;;;2.47;0.82;;;32.40;91.30;;;;;;5016709;28;20192;-88
2022/07/17 10:25:16;;;;;;;1.80;0.93;;;33.00;93.30;;;;;;5015203;28;20305;-88
2022/07/17 10:27:53;;;;;;;2.25;1.15;;;33.00;90.30;;;;;;5015662;28;20241;-87
2022/07/17 10:30:31;;;;;;;1.85;1.10;;;32.90;92.50;;;;;;5005657;28;20210;-88
2022/07/17 10:33:00;;;;;;;1.08;0.90;;;32.40;91.80;;;;;;4996414;28;20779;-88
2022/07/17 10:35:28;;;;;;;0.98;0.77;;;32.60;91.30;;;;;;4995616;28;20213;-88
2022/07/17 10:38:08;;;;;;;1.63;1.20;;;32.70;92.30;;;;;;4996989;28;20587;-87
2022/07/17 10:40:34;;;;;;;2.75;0.93;;;32.60;92.60;;;;;;4996741;28;20767;-88
2022/07/17 10:43:05;;;;;;;1.08;0.98;;;31.40;93.00;;;;;;4971637;28;20227;-88
2022/07/17 10:45:42;;;;;;;1.27;0.93;;;31.70;92.80;;;;;;4993838;28;20278;-88
2022/07/17 10:48:12;;;;;;;1.77;0.90;;;31.50;93.50;;;;;;5003606;28;20250;-88
2022/07/17 10:50:45;;;;;;;1.85;1.27;;;31.70;92.80;;;;;;5013691;28;20273;-88
2022/07/17 10:53:28;;;;;;;2.40;0.90;;;31.30;92.20;;;;;;5000146;28;20311;-88
2022/07/17 10:55:58;;;;;;;1.17;1.00;;;28.80;98.50;;;;;;5017075;28;20699;-88
2022/07/17 10:58:33;;;;;;;0.95;0.85;;;27.60;98.70;;;;;;5017140;28;20196;-88
2022/07/17 11:01:10;;;;;;;1.55;0.95;;;27.30;99.90;;;;;;4998263;28;20273;-88
2022/07/17 11:03:45;;;;;;;1.00;0.90;;;28.40;99.40;;;;;;4999657;28;20211;-88
2022/07/17 11:06:20;;;;;;;1.88;1.10;;;27.90;99.90;;;;;;5000107;28;20217;-88
2022/07/17 11:08:46;;;;;;;3.58;1.23;;;29.00;98.90;;;;;;4999804;28;20242;-88
2022/07/17 11:11:11;;;;;;;1.48;1.10;;;27.90;99.90;;;;;;5033576;28;20265;-88
2022/07/17 11:13:37;;;;;;;3.10;1.23;;;28.00;98.70;;;;;;5001385;28;20191;-88
2022/07/17 11:16:03;;;;;;;2.50;1.20;;;28.70;98.40;;;;;;4982782;28;20679;-88
2022/07/17 11:18:30;;;;;;;1.00;1.00;;;29.40;99.30;;;;;;5013725;28;20302;-88
2022/07/17 11:20:58;;;;;;;3.97;1.20;;;30.00;99.40;;;;;;5019101;28;20223;-88
2022/07/17 11:23:26;;;;;;;2.90;1.00;;;30.50;96.80;;;;;;5018826;28;20216;-88
2022/07/17 11:25:54;;;;;;;1.52;1.10;;;30.90;97.00;;;;;;5027504;28;20282;-89
2022/07/17 11:28:39;;;;;;;3.58;1.20;;;30.20;94.40;;;;;;5019984;28;20416;-89
2022/07/17 11:31:19;;;;;;;2.00;1.17;;;30.00;96.30;;;;;;5017409;28;20735;-88
2022/07/17 11:34:08;;;;;;;1.80;1.30;;;30.00;96.30;;;;;;4999713;28;20221;-88
2022/07/17 11:36:41;;;;;;;1.30;1.02;;;28.50;98.90;;;;;;5000283;28;20586;-88
2022/07/17 11:39:18;;;;;;;2.58;1.17;;;27.90;99.30;;;;;;5007009;28;20641;-88
2022/07/17 11:41:47;;;;;;;1.83;1.10;;;26.90;99.90;;;;;;4981831;28;20211;-89
2022/07/17 11:44:15;;;;;;;4.22;1.15;;;27.80;99.90;;;;;;4999461;28;20250;-87
2022/07/17 11:46:44;;;;;;;1.65;1.13;;;28.00;99.90;;;;;;5007762;28;20543;-88
2022/07/17 11:49:11;;;;;;;1.85;1.02;;;27.00;99.90;;;;;;4983897;28;20660;-90
2022/07/17 11:51:42;;;;;;;1.52;1.10;;;27.60;99.90;;;;;;5000929;28;20306;-90
2022/07/17 11:54:14;;;;;;;1.58;1.08;;;28.50;99.90;;;;;;4988029;28;20215;-91
2022/07/17 11:56:42;;;;;;;1.27;0.90;;;27.60;99.90;;;;;;5007593;28;20351;-91
2022/07/17 11:59:09;;;;;;;3.55;1.10;;;26.20;99.90;;;;;;4998795;28;20593;-92
2022/07/17 12:01:40;;;;;;;2.10;1.10;;;25.70;99.90;;;;;;4999285;28;20260;-91
2022/07/17 12:04:08;;;;;;;2.47;1.15;;;25.40;99.90;;;;;;5007290;28;20259;-92
2022/07/17 12:06:34;;;;;;;1.27;1.02;;;25.30;99.90;;;;;;4999153;28;20210;-90
2022/07/17 12:09:00;;;;;;;1.20;1.02;;;25.30;99.90;;;;;;4982772;28;20223;-90
2022/07/17 12:11:25;;;;;;;1.02;0.85;;;25.40;99.90;;;;;;4967306;28;20802;-91
2022/07/17 12:13:51;;;;;;;2.72;1.17;;;25.30;99.90;;;;;;4965462;28;20191;-90
2022/07/17 12:16:25;;;;;;;1.02;0.98;;;25.00;99.90;;;;;;4984468;28;20183;-91
2022/07/17 12:19:18;;;;;;;4.10;1.35;;;25.00;99.90;;;;;;5000738;28;20247;-91
2022/07/17 12:21:47;;;;;;;1.13;1.02;;;25.50;99.90;;;;;;4996563;28;20307;-92
2022/07/17 12:24:26;;;;;;;1.65;1.27;;;26.20;99.90;;;;;;5001208;28;20219;-91
2022/07/17 12:26:53;;;;;;;1.65;1.23;;;26.70;99.90;;;;;;4998691;28;20219;-90
2022/07/17 12:29:19;;;;;;;2.45;1.40;;;27.10;99.90;;;;;;5000204;28;21052;-91
2022/07/17 12:31:45;;;;;;;1.52;1.20;;;27.30;99.90;;;;;;4982837;28;20214;-91
2022/07/17 12:34:11;;;;;;;4.22;1.10;;;27.40;99.90;;;;;;4998779;28;20191;-92
2022/07/17 12:36:37;;;;;;;2.17;1.17;;;27.00;99.90;;;;;;4980327;28;20220;-90
2022/07/17 12:39:03;;;;;;;1.48;1.27;;;27.20;99.90;;;;;;4982361;28;20222;-89
2022/07/17 12:41:29;;;;;;;2.67;1.30;;;27.30;99.90;;;;;;4981413;28;20222;-89
2022/07/17 12:43:55;;;;;;;1.70;1.13;;;27.30;99.90;;;;;;4981270;28;20188;-89
2022/07/17 12:46:20;;;;;;;3.33;1.48;;;27.10;99.90;;;;;;4999029;28;20572;-88
2022/07/17 12:48:46;;;;;;;1.77;1.40;;;26.50;99.90;;;;;;4983128;28;20262;-89